Capulin, NM

4:51 PM MDT on October 25, 2014 (GMT -0600)
Baca Valley | Change Station
CLOSE
Current Station
Personal Weather Station
Location: Des Moines, NM
Elevation: 6645 ft
Nearby Weather Stations

Elev 6645 ft 36.76 °N, 103.83 °W | Updated 6 minutes ago

Clear
Clear
76.0 °F
Feels Like 76 °F
N
10.0
Wind Variable Wind from SSE
Gusts 22.0 mph

Today
High -- | Low -- °F
--% Chance of Precip.
Yesterday
High -- | Low -- °F
Precip. -- in
7:12 AM 6:06 PM
Waxing Crescent, 4% visible
Pressure 29.94 in
Visibility 10.0 miles
Clouds Clear
Heat Index 76 °F
Dew Point 26 °F
Humidity 16%
Rainfall -999.00 in
Snow Depth Not available.
UV 2 out of 12
Pollen 2.50 out of 12
Air Quality Not available.
Flu Activity Sporadic
METAR KRTN 252153Z AUTO 19010KT 10SM CLR 28/M07 A3016 RMK AO2 SLP138 T02781067

More Conditions Fewer Conditions

Pressure 29.94 in
Visibility 10.0 miles
Clouds Clear
Heat Index 76 °F
Dew Point 26 °F
Humidity 16%
Rainfall -999.00 in
Snow Depth Not available.
UV 2 out of 12
Pollen 2.50 out of 12
Air Quality Not available.
Flu Activity Sporadic
METAR KRTN 252153Z AUTO 19010KT 10SM CLR 28/M07 A3016 RMK AO2 SLP138 T02781067

More Conditions Fewer Conditions

10-Day Weather Forecast

Almanac

Astronomy

Oct. 25, 2014 Rise Set
Actual Time 7:12 AM MDT 6:06 PM MDT
Civil Twilight 6:46 AM MDT 6:33 PM MDT
Nautical Twilight 6:15 AM MDT 7:03 PM MDT
Astronomical Twilight 5:45 AM MDT 7:33 PM MDT
Moon 8:52 AM MDT 7:33 PM MDT
Length of Visible Light 11h 46m
Length of Day
10h 53m
Tomorrow will be 2m 8s shorter.
Waxing Crescent, 4% of the Moon is Illuminated
Today
Waxing Crescent
Oct 30
First Quarter
Nov 6
Full
Nov 14
Last Quarter
Nov 22
New

Today's Extremes

State Highs State Lows

Community

WunderPhotos

Upload Photos

1,765,016 photos uploaded!

Nearby

Snow Depth

Station Depth Elevation
Red River Pass #2 0 in 9850 ft
Senorita Divide #2 0 in 8600 ft
Silver Creek Divide 1 in 9000 ft

Earthquake Activity

City Distance Mag. Time & Date
No recent earthquake activity has been reported nearby.
Minimum magnitude displayed is 2.5.

Coastal Water Temperatures

Place Temperature
No Stations Reporting

Nearby Weather Stations